createdAt,value
2023-02-23T00:01:51.474Z,98174.00
2023-02-23T00:04:18.762Z,98172.00
2023-02-23T00:06:45.533Z,98170.00
2023-02-23T00:09:22.797Z,98174.00
2023-02-23T00:11:57.211Z,98170.00
2023-02-23T00:14:28.717Z,98163.00
2023-02-23T00:16:56.342Z,98167.00
2023-02-23T00:19:27.834Z,98173.00
2023-02-23T00:21:54.889Z,98156.00
2023-02-23T00:24:22.023Z,98160.00
2023-02-23T00:26:51.257Z,98164.00
2023-02-23T00:29:20.957Z,98161.00
2023-02-23T00:31:49.259Z,98154.00
2023-02-23T00:34:20.933Z,98160.00
2023-02-23T00:36:55.142Z,98154.00
2023-02-23T00:39:26.365Z,98154.00
2023-02-23T00:41:55.232Z,98158.00
2023-02-23T00:44:23.573Z,98162.00
2023-02-23T00:46:51.923Z,98158.00
2023-02-23T00:49:20.579Z,98152.00
2023-02-23T00:51:47.658Z,98152.00
2023-02-23T00:54:15.513Z,98156.00
2023-02-23T00:56:42.150Z,98156.00
2023-02-23T00:59:09.486Z,98141.00
2023-02-23T01:01:37.564Z,98154.00
2023-02-23T01:04:04.722Z,98156.00
2023-02-23T01:06:31.205Z,98153.00
2023-02-23T01:08:57.814Z,98158.00
2023-02-23T01:11:30.943Z,98155.00
2023-02-23T01:13:59.006Z,98158.00
2023-02-23T01:16:29.346Z,98149.00
2023-02-23T01:18:58.913Z,98155.00
2023-02-23T01:21:28.594Z,98148.00
2023-02-23T01:23:56.030Z,98158.00
2023-02-23T01:26:34.143Z,98158.00
2023-02-23T01:29:21.108Z,98153.00
2023-02-23T01:31:51.175Z,98156.00
2023-02-23T01:34:19.583Z,98152.00
2023-02-23T01:36:46.093Z,98147.00
2023-02-23T01:39:15.819Z,98148.00
2023-02-23T01:41:42.564Z,98142.00
2023-02-23T01:44:15.057Z,98137.00
2023-02-23T01:46:46.303Z,98150.00
2023-02-23T01:49:26.045Z,98150.00
2023-02-23T01:52:00.649Z,98150.00
2023-02-23T01:54:32.106Z,98146.00
2023-02-23T01:57:01.445Z,98140.00
2023-02-23T01:59:37.345Z,98134.00
2023-02-23T02:02:05.275Z,98142.00
2023-02-23T02:04:43.808Z,98141.00
2023-02-23T02:07:17.652Z,98147.00
2023-02-23T02:10:09.706Z,98137.00
2023-02-23T02:12:45.326Z,98143.00
2023-02-23T02:15:17.440Z,98137.00
2023-02-23T02:18:09.397Z,98140.00
2023-02-23T02:21:04.900Z,98132.00
2023-02-23T02:23:58.734Z,98134.00
2023-02-23T02:26:53.533Z,98130.00
2023-02-23T02:29:56.052Z,98126.00
2023-02-23T02:32:55.331Z,98126.00
2023-02-23T02:35:38.092Z,98122.00
2023-02-23T02:38:37.593Z,98121.00
2023-02-23T02:41:22.882Z,98118.00
2023-02-23T02:44:11.531Z,98119.00
2023-02-23T02:46:48.010Z,98113.00
2023-02-23T02:49:26.681Z,98117.00
2023-02-23T02:52:00.891Z,98113.00
2023-02-23T02:54:39.481Z,98111.00
2023-02-23T02:57:07.696Z,98114.00
2023-02-23T03:00:05.215Z,98111.00
2023-02-23T03:02:52.318Z,98110.00
2023-02-23T03:05:40.079Z,98099.00
2023-02-23T03:09:03.850Z,98102.00
2023-02-23T03:12:20.675Z,98101.00
2023-02-23T03:15:32.571Z,98105.00
2023-02-23T03:18:33.913Z,98109.00
2023-02-23T03:21:27.070Z,98112.00
2023-02-23T03:24:23.908Z,98108.00
2023-02-23T03:27:17.027Z,98104.00
2023-02-23T03:30:11.274Z,98108.00
2023-02-23T03:33:06.993Z,98108.00
2023-02-23T03:36:06.914Z,98112.00
2023-02-23T03:39:06.256Z,98112.00
2023-02-23T03:41:53.172Z,98107.00
2023-02-23T03:44:43.985Z,98120.00
2023-02-23T03:47:31.850Z,98112.00
2023-02-23T03:50:21.565Z,98121.00
2023-02-23T03:53:14.979Z,98118.00
2023-02-23T03:56:05.871Z,98116.00
2023-02-23T03:58:57.130Z,98116.00
2023-02-23T04:01:45.636Z,98122.00
2023-02-23T04:04:30.969Z,98121.00
2023-02-23T04:07:19.957Z,98117.00
2023-02-23T04:10:05.275Z,98117.00
2023-02-23T04:13:10.742Z,98125.00
2023-02-23T04:15:41.085Z,98130.00
2023-02-23T04:18:13.208Z,98126.00
2023-02-23T04:20:39.959Z,98128.00
2023-02-23T04:23:06.484Z,98128.00
2023-02-23T04:25:32.972Z,98131.00
2023-02-23T04:27:59.515Z,98127.00
2023-02-23T04:30:28.440Z,98133.00
2023-02-23T04:32:55.457Z,98135.00
2023-02-23T04:35:22.553Z,98142.00
2023-02-23T04:37:49.067Z,98139.00
2023-02-23T04:40:15.681Z,98144.00
2023-02-23T04:42:42.372Z,98138.00
2023-02-23T04:45:09.715Z,98146.00
2023-02-23T04:47:36.544Z,98140.00
2023-02-23T04:50:03.418Z,98150.00
2023-02-23T04:52:29.906Z,98155.00
2023-02-23T04:54:56.390Z,98147.00
2023-02-23T04:57:22.903Z,98156.00
2023-02-23T04:59:49.380Z,98157.00
2023-02-23T05:02:15.954Z,98154.00
2023-02-23T05:04:42.464Z,98143.00
2023-02-23T05:07:08.971Z,98151.00
2023-02-23T05:09:35.509Z,98150.00
2023-02-23T05:12:02.210Z,98147.00
2023-02-23T05:14:28.682Z,98137.00
2023-02-23T05:16:55.248Z,98147.00
2023-02-23T05:19:21.779Z,98150.00
2023-02-23T05:21:50.401Z,98139.00
2023-02-23T05:24:18.235Z,98141.00
2023-02-23T05:26:45.133Z,98141.00
2023-02-23T05:29:12.388Z,98138.00
2023-02-23T05:31:39.037Z,98142.00
2023-02-23T05:34:05.603Z,98133.00
2023-02-23T05:36:32.278Z,98138.00
2023-02-23T05:38:58.790Z,98149.00
2023-02-23T05:41:25.224Z,98129.00
2023-02-23T05:43:52.636Z,98139.00
2023-02-23T05:46:22.385Z,98133.00
2023-02-23T05:48:49.020Z,98137.00
2023-02-23T05:51:17.124Z,98140.00
2023-02-23T05:53:44.948Z,98142.00
2023-02-23T05:56:14.166Z,98145.00
2023-02-23T05:58:40.675Z,98135.00
2023-02-23T06:01:07.213Z,98145.00
2023-02-23T06:03:34.222Z,98142.00
2023-02-23T06:06:00.789Z,98146.00
2023-02-23T06:08:27.496Z,98147.00
2023-02-23T06:10:54.005Z,98142.00
2023-02-23T06:13:21.298Z,98149.00
2023-02-23T06:15:49.490Z,98151.00
2023-02-23T06:18:17.669Z,98146.00
2023-02-23T06:20:45.854Z,98151.00
2023-02-23T06:23:13.384Z,98155.00
2023-02-23T06:25:41.037Z,98153.00
2023-02-23T06:28:08.859Z,98164.00
2023-02-23T06:30:36.258Z,98157.00
2023-02-23T06:33:03.141Z,98151.00
2023-02-23T06:35:30.586Z,98152.00
2023-02-23T06:37:57.218Z,98156.00
2023-02-23T06:40:24.262Z,98158.00
2023-02-23T06:42:51.207Z,98158.00
2023-02-23T06:45:19.220Z,98161.00
2023-02-23T06:47:47.130Z,98168.00
2023-02-23T06:50:14.908Z,98169.00
2023-02-23T06:52:41.891Z,98166.00
2023-02-23T06:55:09.837Z,98169.00
2023-02-23T06:57:36.507Z,98178.00
2023-02-23T07:00:04.817Z,98182.00
2023-02-23T07:02:31.762Z,98188.00
2023-02-23T07:04:58.921Z,98190.00
2023-02-23T07:07:25.564Z,98191.00
2023-02-23T07:09:52.124Z,98195.00
2023-02-23T07:12:18.753Z,98195.00
2023-02-23T07:14:45.278Z,98201.00
2023-02-23T07:17:12.717Z,98212.00
2023-02-23T07:19:39.404Z,98207.00
2023-02-23T07:22:05.998Z,98207.00
2023-02-23T07:24:32.539Z,98209.00
2023-02-23T07:26:59.282Z,98218.00
2023-02-23T07:29:27.681Z,98208.00
2023-02-23T07:31:54.845Z,98225.00
2023-02-23T07:34:21.669Z,98225.00
2023-02-23T07:36:48.295Z,98221.00
2023-02-23T07:39:17.494Z,98218.00
2023-02-23T07:41:44.157Z,98222.00
2023-02-23T07:44:18.382Z,98223.00
2023-02-23T07:46:49.408Z,98220.00
2023-02-23T07:49:16.005Z,98217.00
2023-02-23T07:51:42.796Z,98221.00
2023-02-23T07:54:09.339Z,98213.00
2023-02-23T07:56:35.855Z,98221.00
2023-02-23T07:59:02.704Z,98228.00
2023-02-23T08:01:29.323Z,98232.00
2023-02-23T08:03:55.836Z,98229.00
2023-02-23T08:06:22.434Z,98232.00
2023-02-23T08:08:49.168Z,98236.00
2023-02-23T08:11:15.817Z,98234.00
2023-02-23T08:13:42.434Z,98247.00
2023-02-23T08:16:09.061Z,98241.00
2023-02-23T08:18:35.659Z,98243.00
2023-02-23T08:21:03.893Z,98247.00
2023-02-23T08:23:34.445Z,98248.00
2023-02-23T08:26:02.184Z,98250.00
2023-02-23T08:28:29.651Z,98257.00
2023-02-23T08:30:56.331Z,98244.00
2023-02-23T08:33:23.216Z,98248.00
2023-02-23T08:35:49.704Z,98244.00
2023-02-23T08:38:18.237Z,98242.00
2023-02-23T08:40:45.149Z,98248.00
2023-02-23T08:43:11.761Z,98247.00
2023-02-23T08:45:39.583Z,98248.00
2023-02-23T08:48:09.315Z,98253.00
2023-02-23T08:50:36.955Z,98249.00
2023-02-23T08:53:06.732Z,98251.00
2023-02-23T08:55:36.445Z,98260.00
2023-02-23T08:58:03.661Z,98255.00
2023-02-23T09:00:31.822Z,98250.00
2023-02-23T09:03:01.863Z,98257.00
2023-02-23T09:05:40.386Z,98259.00
2023-02-23T09:08:07.440Z,98262.00
2023-02-23T09:10:34.772Z,98261.00
2023-02-23T09:13:02.777Z,98261.00
2023-02-23T09:15:29.314Z,98264.00
2023-02-23T09:18:00.697Z,98263.00
2023-02-23T09:20:27.255Z,98266.00
2023-02-23T09:22:53.815Z,98262.00
2023-02-23T09:25:22.856Z,98269.00
2023-02-23T09:27:51.375Z,98278.00
2023-02-23T09:30:20.691Z,98274.00
2023-02-23T09:32:48.352Z,98278.00
2023-02-23T09:35:17.779Z,98272.00
2023-02-23T09:37:48.675Z,98281.00
2023-02-23T09:40:24.858Z,98281.00
2023-02-23T09:43:12.488Z,98286.00
2023-02-23T09:45:43.479Z,98289.00
2023-02-23T09:48:16.484Z,98286.00
2023-02-23T09:50:47.638Z,98286.00
2023-02-23T09:53:23.237Z,98291.00
2023-02-23T09:55:53.746Z,98286.00
2023-02-23T09:58:29.189Z,98284.00
2023-02-23T10:01:14.007Z,98284.00
2023-02-23T10:03:50.280Z,98290.00
2023-02-23T10:06:18.195Z,98300.00
2023-02-23T10:08:59.018Z,98302.00
2023-02-23T10:11:41.941Z,98296.00
2023-02-23T10:14:45.856Z,98300.00
2023-02-23T10:17:17.993Z,98310.00
2023-02-23T10:19:57.409Z,98308.00
2023-02-23T10:22:25.714Z,98310.00
2023-02-23T10:24:52.358Z,98313.00
2023-02-23T10:27:21.443Z,98303.00
2023-02-23T10:29:51.519Z,98310.00
2023-02-23T10:32:45.673Z,98311.00
2023-02-23T10:35:15.928Z,98312.00
2023-02-23T10:37:42.464Z,98315.00
2023-02-23T10:40:17.332Z,98315.00
2023-02-23T10:42:43.871Z,98309.00
2023-02-23T10:45:19.680Z,98308.00
2023-02-23T10:47:47.511Z,98309.00
2023-02-23T10:50:15.005Z,98313.00
2023-02-23T10:52:44.783Z,98315.00
2023-02-23T10:55:45.553Z,98312.00
2023-02-23T10:58:19.211Z,98311.00
2023-02-23T11:01:03.764Z,98316.00
2023-02-23T11:03:43.311Z,98305.00
2023-02-23T11:06:32.419Z,98311.00
2023-02-23T11:08:59.023Z,98306.00
2023-02-23T11:11:28.822Z,98299.00
2023-02-23T11:13:57.509Z,98303.00
2023-02-23T11:16:30.443Z,98300.00
2023-02-23T11:19:03.390Z,98313.00
2023-02-23T11:21:33.811Z,98306.00
2023-02-23T11:24:19.279Z,98309.00
2023-02-23T11:26:48.458Z,98299.00
2023-02-23T11:29:35.149Z,98296.00
2023-02-23T11:32:19.617Z,98298.00
2023-02-23T11:34:50.943Z,98294.00
2023-02-23T11:37:17.364Z,98290.00
2023-02-23T11:39:57.424Z,98292.00
2023-02-23T11:42:34.552Z,98288.00
2023-02-23T11:45:16.243Z,98292.00
2023-02-23T11:47:58.642Z,98285.00
2023-02-23T11:50:27.663Z,98280.00
2023-02-23T11:53:05.443Z,98287.00
2023-02-23T11:55:36.588Z,98281.00
2023-02-23T11:58:27.852Z,98282.00
2023-02-23T12:00:59.795Z,98279.00
2023-02-23T12:03:29.007Z,98278.00
2023-02-23T12:05:59.826Z,98275.00
2023-02-23T12:08:33.667Z,98270.00
2023-02-23T12:11:02.092Z,98272.00
2023-02-23T12:13:37.904Z,98274.00
2023-02-23T12:16:10.596Z,98257.00
2023-02-23T12:18:41.912Z,98264.00
2023-02-23T12:21:38.117Z,98258.00
2023-02-23T12:24:10.758Z,98263.00
2023-02-23T12:26:47.048Z,98258.00
2023-02-23T12:29:23.221Z,98259.00
2023-02-23T12:31:57.763Z,98258.00
2023-02-23T12:34:35.827Z,98263.00
2023-02-23T12:37:16.981Z,98255.00
2023-02-23T12:39:47.052Z,98262.00
2023-02-23T12:42:17.960Z,98257.00
2023-02-23T12:44:53.496Z,98260.00
2023-02-23T12:47:37.131Z,98264.00
2023-02-23T12:50:14.036Z,98252.00
2023-02-23T12:53:02.541Z,98260.00
2023-02-23T12:55:40.046Z,98246.00
2023-02-23T12:58:28.462Z,98243.00
2023-02-23T13:01:05.970Z,98241.00
2023-02-23T13:03:49.658Z,98246.00
2023-02-23T13:06:21.294Z,98244.00
2023-02-23T13:09:15.534Z,98248.00
2023-02-23T13:12:00.178Z,98250.00
2023-02-23T13:14:30.795Z,98260.00
2023-02-23T13:17:03.083Z,98246.00
2023-02-23T13:19:39.220Z,98246.00
2023-02-23T13:22:24.462Z,98244.00
2023-02-23T13:24:53.682Z,98249.00
2023-02-23T13:27:25.199Z,98249.00
2023-02-23T13:29:54.936Z,98244.00
2023-02-23T13:32:24.523Z,98253.00
2023-02-23T13:35:00.744Z,98246.00
2023-02-23T13:37:47.961Z,98245.00
2023-02-23T13:40:45.434Z,98245.00
2023-02-23T13:43:30.141Z,98244.00
2023-02-23T13:46:26.135Z,98243.00
2023-02-23T13:49:21.696Z,98253.00
2023-02-23T13:51:54.929Z,98242.00
2023-02-23T13:54:24.951Z,98238.00
2023-02-23T13:56:56.336Z,98241.00
2023-02-23T13:59:29.258Z,98240.00
2023-02-23T14:01:57.333Z,98246.00
2023-02-23T14:04:34.159Z,98235.00
2023-02-23T14:07:16.704Z,98244.00
2023-02-23T14:09:56.533Z,98242.00
2023-02-23T14:12:32.591Z,98235.00
2023-02-23T14:15:28.444Z,98239.00
2023-02-23T14:18:00.322Z,98247.00
2023-02-23T14:20:38.740Z,98241.00
2023-02-23T14:23:18.386Z,98238.00
2023-02-23T14:25:50.589Z,98237.00
2023-02-23T14:28:30.674Z,98240.00
2023-02-23T14:31:11.225Z,98240.00
2023-02-23T14:33:51.462Z,98238.00
2023-02-23T14:36:23.918Z,98236.00
2023-02-23T14:38:56.780Z,98234.00
2023-02-23T14:41:26.574Z,98236.00
2023-02-23T14:44:10.619Z,98235.00
2023-02-23T14:47:14.320Z,98238.00
2023-02-23T14:49:47.064Z,98224.00
2023-02-23T14:52:40.877Z,98233.00
2023-02-23T14:55:29.076Z,98228.00
2023-02-23T14:57:57.941Z,98220.00
2023-02-23T15:00:32.482Z,98221.00
2023-02-23T15:03:12.740Z,98219.00
2023-02-23T15:05:45.040Z,98219.00
2023-02-23T15:08:21.528Z,98223.00
2023-02-23T15:10:51.361Z,98235.00
2023-02-23T15:13:29.964Z,98239.00
2023-02-23T15:16:18.275Z,98230.00
2023-02-23T15:19:32.137Z,98235.00
2023-02-23T15:22:00.642Z,98237.00
2023-02-23T15:24:32.440Z,98233.00
2023-02-23T15:26:59.916Z,98231.00
2023-02-23T15:29:33.580Z,98229.00
2023-02-23T15:32:18.899Z,98231.00
2023-02-23T15:34:45.875Z,98226.00
2023-02-23T15:37:19.933Z,98237.00
2023-02-23T15:39:52.891Z,98237.00
2023-02-23T15:42:28.849Z,98232.00
2023-02-23T15:44:58.263Z,98230.00
2023-02-23T15:47:28.955Z,98239.00
2023-02-23T15:50:05.503Z,98236.00
2023-02-23T15:52:35.093Z,98232.00
2023-02-23T15:55:07.805Z,98233.00
2023-02-23T15:57:47.314Z,98230.00
2023-02-23T16:00:37.986Z,98237.00
2023-02-23T16:03:06.530Z,98241.00
2023-02-23T16:05:46.602Z,98238.00
2023-02-23T16:08:23.316Z,98238.00
2023-02-23T16:10:55.036Z,98237.00
2023-02-23T16:13:22.504Z,98249.00
2023-02-23T16:15:50.036Z,98244.00
2023-02-23T16:18:20.062Z,98247.00
2023-02-23T16:20:55.912Z,98235.00
2023-02-23T16:23:36.063Z,98239.00
2023-02-23T16:26:12.856Z,98242.00
2023-02-23T16:28:43.466Z,98237.00
2023-02-23T16:31:13.288Z,98238.00
2023-02-23T16:33:54.495Z,98243.00
2023-02-23T16:36:33.345Z,98240.00
2023-02-23T16:39:06.977Z,98241.00
2023-02-23T16:41:34.623Z,98249.00
2023-02-23T16:44:03.644Z,98248.00
2023-02-23T16:46:33.423Z,98243.00
2023-02-23T16:49:05.157Z,98250.00
2023-02-23T16:51:34.724Z,98249.00
2023-02-23T16:54:04.202Z,98249.00
2023-02-23T16:56:31.205Z,98247.00
2023-02-23T16:59:02.991Z,98244.00
2023-02-23T17:01:29.570Z,98246.00
2023-02-23T17:03:56.268Z,98250.00
2023-02-23T17:06:23.313Z,98249.00
2023-02-23T17:08:58.485Z,98247.00
2023-02-23T17:11:25.913Z,98251.00
2023-02-23T17:13:52.657Z,98247.00
2023-02-23T17:16:19.838Z,98261.00
2023-02-23T17:18:46.667Z,98260.00
2023-02-23T17:21:14.534Z,98261.00
2023-02-23T17:23:51.356Z,98257.00
2023-02-23T17:26:22.061Z,98263.00
2023-02-23T17:28:48.759Z,98261.00
2023-02-23T17:31:17.529Z,98257.00
2023-02-23T17:33:44.871Z,98257.00
2023-02-23T17:36:14.766Z,98254.00
2023-02-23T17:38:44.079Z,98247.00
2023-02-23T17:41:17.626Z,98265.00
2023-02-23T17:43:44.344Z,98256.00
2023-02-23T17:46:11.841Z,98251.00
2023-02-23T17:48:40.577Z,98251.00
2023-02-23T17:51:10.183Z,98252.00
2023-02-23T17:53:36.792Z,98254.00
2023-02-23T17:56:04.115Z,98253.00
2023-02-23T17:58:31.016Z,98251.00
2023-02-23T18:01:00.012Z,98250.00
2023-02-23T18:03:34.607Z,98249.00
2023-02-23T18:06:01.716Z,98254.00
2023-02-23T18:08:28.359Z,98250.00
2023-02-23T18:10:55.425Z,98260.00
2023-02-23T18:13:22.958Z,98255.00
2023-02-23T18:15:50.923Z,98254.00
2023-02-23T18:18:17.628Z,98256.00
2023-02-23T18:20:54.814Z,98262.00
2023-02-23T18:23:23.091Z,98258.00
2023-02-23T18:25:49.867Z,98267.00
2023-02-23T18:28:17.483Z,98252.00
2023-02-23T18:30:44.752Z,98259.00
2023-02-23T18:33:12.316Z,98264.00
2023-02-23T18:35:44.957Z,98265.00
2023-02-23T18:38:13.966Z,98263.00
2023-02-23T18:40:40.911Z,98260.00
2023-02-23T18:43:08.598Z,98255.00
2023-02-23T18:45:35.287Z,98253.00
2023-02-23T18:48:01.908Z,98258.00
2023-02-23T18:50:28.582Z,98256.00
2023-02-23T18:52:56.553Z,98262.00
2023-02-23T18:55:23.798Z,98255.00
2023-02-23T18:57:52.614Z,98253.00
2023-02-23T19:00:20.304Z,98251.00
2023-02-23T19:02:47.679Z,98253.00
2023-02-23T19:05:15.828Z,98255.00
2023-02-23T19:07:42.676Z,98259.00
2023-02-23T19:10:12.175Z,98250.00
2023-02-23T19:12:39.799Z,98255.00
2023-02-23T19:15:08.030Z,98249.00
2023-02-23T19:17:35.484Z,98255.00
2023-02-23T19:20:02.025Z,98253.00
2023-02-23T19:22:29.381Z,98260.00
2023-02-23T19:24:55.903Z,98245.00
2023-02-23T19:27:22.664Z,98255.00
2023-02-23T19:29:49.368Z,98253.00
2023-02-23T19:32:18.965Z,98250.00
2023-02-23T19:34:48.226Z,98251.00
2023-02-23T19:37:14.742Z,98253.00
2023-02-23T19:39:41.429Z,98251.00
2023-02-23T19:42:09.056Z,98243.00
2023-02-23T19:44:35.681Z,98253.00
2023-02-23T19:47:02.219Z,98253.00
2023-02-23T19:49:28.669Z,98256.00
2023-02-23T19:51:55.254Z,98257.00
2023-02-23T19:54:21.827Z,98264.00
2023-02-23T19:56:49.888Z,98266.00
2023-02-23T19:59:16.493Z,98260.00
2023-02-23T20:01:45.021Z,98268.00
2023-02-23T20:04:11.655Z,98266.00
2023-02-23T20:06:47.185Z,98266.00
2023-02-23T20:09:14.211Z,98260.00
2023-02-23T20:11:40.896Z,98268.00
2023-02-23T20:14:08.750Z,98274.00
2023-02-23T20:16:35.614Z,98275.00
2023-02-23T20:19:03.560Z,98273.00
2023-02-23T20:21:31.406Z,98280.00
2023-02-23T20:23:58.722Z,98274.00
2023-02-23T20:26:29.119Z,98278.00
2023-02-23T20:28:57.293Z,98272.00
2023-02-23T20:31:26.854Z,98274.00
2023-02-23T20:33:56.016Z,98275.00
2023-02-23T20:36:23.756Z,98278.00
2023-02-23T20:38:50.638Z,98271.00
2023-02-23T20:41:17.470Z,98271.00
2023-02-23T20:43:44.998Z,98278.00
2023-02-23T20:46:16.772Z,98281.00
2023-02-23T20:48:43.856Z,98272.00
2023-02-23T20:51:15.114Z,98273.00
2023-02-23T20:53:45.228Z,98265.00
2023-02-23T20:56:14.932Z,98270.00
2023-02-23T20:58:41.508Z,98274.00
2023-02-23T21:01:23.640Z,98273.00
2023-02-23T21:03:52.136Z,98260.00
2023-02-23T21:06:20.401Z,98267.00
2023-02-23T21:08:49.023Z,98273.00
2023-02-23T21:11:17.780Z,98280.00
2023-02-23T21:13:44.417Z,98268.00
2023-02-23T21:16:14.804Z,98270.00
2023-02-23T21:18:42.700Z,98266.00
2023-02-23T21:21:10.145Z,98266.00
2023-02-23T21:23:38.734Z,98262.00
2023-02-23T21:26:09.786Z,98264.00
2023-02-23T21:28:37.655Z,98268.00
2023-02-23T21:31:04.936Z,98268.00
2023-02-23T21:33:31.476Z,98253.00
2023-02-23T21:35:58.747Z,98267.00
2023-02-23T21:38:25.735Z,98261.00
2023-02-23T21:40:52.801Z,98253.00
2023-02-23T21:43:19.331Z,98267.00
2023-02-23T21:45:46.685Z,98269.00
2023-02-23T21:48:13.616Z,98266.00
2023-02-23T21:50:40.428Z,98260.00
2023-02-23T21:53:09.236Z,98271.00
2023-02-23T21:55:38.628Z,98259.00
2023-02-23T21:58:07.080Z,98263.00
2023-02-23T22:00:35.647Z,98254.00
2023-02-23T22:03:03.413Z,98251.00
2023-02-23T22:05:30.075Z,98247.00
2023-02-23T22:07:56.750Z,98255.00
2023-02-23T22:10:24.719Z,98255.00
2023-02-23T22:12:55.805Z,98258.00
2023-02-23T22:15:29.579Z,98264.00
2023-02-23T22:17:56.698Z,98260.00
2023-02-23T22:20:23.544Z,98261.00
2023-02-23T22:22:53.033Z,98267.00
2023-02-23T22:25:20.207Z,98261.00
2023-02-23T22:27:47.440Z,98261.00
2023-02-23T22:30:15.277Z,98260.00
2023-02-23T22:32:42.636Z,98261.00
2023-02-23T22:35:10.170Z,98251.00
2023-02-23T22:37:36.904Z,98250.00
2023-02-23T22:40:16.611Z,98242.00
2023-02-23T22:42:48.098Z,98246.00
2023-02-23T22:45:16.023Z,98252.00
2023-02-23T22:47:42.758Z,98256.00
2023-02-23T22:50:12.030Z,98252.00
2023-02-23T22:52:38.740Z,98254.00
2023-02-23T22:55:05.591Z,98250.00
2023-02-23T22:57:32.108Z,98245.00
2023-02-23T23:00:10.250Z,98248.00
2023-02-23T23:02:36.955Z,98250.00
2023-02-23T23:05:03.919Z,98244.00
2023-02-23T23:07:33.715Z,98240.00
2023-02-23T23:10:05.624Z,98239.00
2023-02-23T23:12:34.175Z,98239.00
2023-02-23T23:15:01.288Z,98247.00
2023-02-23T23:17:31.394Z,98243.00
2023-02-23T23:20:00.125Z,98244.00
2023-02-23T23:22:27.294Z,98241.00
2023-02-23T23:24:53.816Z,98242.00
2023-02-23T23:27:20.772Z,98238.00
2023-02-23T23:29:48.142Z,98230.00
2023-02-23T23:32:19.056Z,98230.00
2023-02-23T23:34:49.506Z,98225.00
2023-02-23T23:37:18.600Z,98234.00
2023-02-23T23:39:45.644Z,98225.00
2023-02-23T23:42:12.840Z,98223.00
2023-02-23T23:44:39.421Z,98215.00
2023-02-23T23:47:06.290Z,98214.00
2023-02-23T23:49:38.648Z,98213.00
2023-02-23T23:52:05.896Z,98214.00
2023-02-23T23:54:41.258Z,98216.00
2023-02-23T23:57:07.949Z,98215.00
2023-02-23T23:59:35.211Z,98213.00
